createdAt,value
2022-07-25T00:00:46.270Z,12.30
2022-07-25T00:01:46.355Z,12.20
2022-07-25T00:02:46.307Z,12.40
2022-07-25T00:03:46.213Z,12.90
2022-07-25T00:04:46.238Z,12.70
2022-07-25T00:05:46.276Z,11.90
2022-07-25T00:06:46.169Z,12.50
2022-07-25T00:07:46.180Z,12.80
2022-07-25T00:08:46.153Z,12.10
2022-07-25T00:09:46.190Z,12.50
2022-07-25T00:10:46.148Z,12.70
2022-07-25T00:11:46.097Z,11.90
2022-07-25T00:12:46.093Z,12.90
2022-07-25T00:13:46.107Z,12.50
2022-07-25T00:14:46.074Z,12.80
2022-07-25T00:15:46.075Z,12.50
2022-07-25T00:16:46.033Z,12.00
2022-07-25T00:17:46.043Z,12.60
2022-07-25T00:18:46.157Z,12.50
2022-07-25T00:19:46.011Z,11.90
2022-07-25T00:20:45.995Z,12.20
2022-07-25T00:21:45.985Z,12.30
2022-07-25T00:22:45.983Z,12.70
2022-07-25T00:23:45.961Z,12.70
2022-07-25T00:24:45.974Z,12.40
2022-07-25T00:25:45.923Z,12.60
2022-07-25T00:26:45.917Z,12.50
2022-07-25T00:27:45.917Z,11.90
2022-07-25T00:28:45.879Z,12.30
2022-07-25T00:29:45.875Z,11.70
2022-07-25T00:30:45.960Z,12.60
2022-07-25T00:31:45.917Z,12.10
2022-07-25T00:32:45.819Z,13.00
2022-07-25T00:33:45.838Z,11.80
2022-07-25T00:34:45.797Z,12.80
2022-07-25T00:35:45.813Z,12.10
2022-07-25T00:36:45.770Z,12.60
2022-07-25T00:37:45.763Z,12.40
2022-07-25T00:38:45.762Z,11.80
2022-07-25T00:39:45.801Z,12.20
2022-07-25T00:40:45.718Z,12.00
2022-07-25T00:41:45.738Z,12.80
2022-07-25T00:42:45.721Z,12.30
2022-07-25T00:43:45.666Z,12.70
2022-07-25T00:44:45.664Z,12.80
2022-07-25T00:45:45.652Z,12.20
2022-07-25T00:46:45.736Z,12.50
2022-07-25T00:47:45.650Z,11.70
2022-07-25T00:48:45.717Z,12.90
2022-07-25T00:49:45.603Z,12.00
2022-07-25T00:50:45.608Z,12.00
2022-07-25T00:51:45.572Z,11.90
2022-07-25T00:52:45.582Z,12.30
2022-07-25T00:53:45.535Z,12.50
2022-07-25T00:54:45.539Z,12.70
2022-07-25T00:55:45.538Z,12.80
2022-07-25T00:56:45.502Z,12.60
2022-07-25T00:57:45.510Z,13.00
2022-07-25T00:58:45.490Z,12.40
2022-07-25T00:59:45.461Z,12.60
2022-07-25T01:00:45.474Z,12.40
2022-07-25T01:01:45.492Z,12.50
2022-07-25T01:02:45.513Z,12.80
2022-07-25T01:03:45.407Z,12.80
2022-07-25T01:04:45.392Z,13.00
2022-07-25T01:05:48.035Z,12.70
2022-07-25T01:06:45.404Z,13.30
2022-07-25T01:07:45.344Z,13.00
2022-07-25T01:08:45.340Z,12.20
2022-07-25T01:09:45.345Z,13.20
2022-07-25T01:10:45.318Z,12.70
2022-07-25T01:11:45.346Z,13.20
2022-07-25T01:12:45.294Z,14.00
2022-07-25T01:13:45.278Z,13.50
2022-07-25T01:14:45.263Z,13.70
2022-07-25T01:15:45.312Z,12.80
2022-07-25T01:16:45.280Z,13.10
2022-07-25T01:17:45.257Z,13.60
2022-07-25T01:18:45.207Z,13.40
2022-07-25T01:19:45.195Z,12.50
2022-07-25T01:20:45.201Z,12.70
2022-07-25T01:21:45.199Z,12.90
2022-07-25T01:22:45.155Z,13.10
2022-07-25T01:23:45.137Z,12.80
2022-07-25T01:24:45.136Z,13.30
2022-07-25T01:25:45.116Z,12.80
2022-07-25T01:26:45.127Z,12.90
2022-07-25T01:27:45.093Z,12.80
2022-07-25T01:28:45.089Z,13.10
2022-07-25T01:29:45.073Z,13.20
2022-07-25T01:30:45.093Z,13.10
2022-07-25T01:31:45.067Z,13.10
2022-07-25T01:32:45.041Z,12.90
2022-07-25T01:33:45.019Z,13.10
2022-07-25T01:34:45.016Z,12.70
2022-07-25T01:35:45.008Z,13.10
2022-07-25T01:36:44.970Z,12.90
2022-07-25T01:37:45.469Z,13.40
2022-07-25T01:38:44.942Z,13.10
2022-07-25T01:39:44.990Z,13.20
2022-07-25T01:40:44.949Z,12.90
2022-07-25T01:41:44.926Z,13.10
2022-07-25T01:42:44.891Z,13.30
2022-07-25T01:43:44.878Z,13.10
2022-07-25T01:44:44.900Z,12.80
2022-07-25T01:45:44.890Z,13.30
2022-07-25T01:46:44.935Z,13.40
2022-07-25T01:47:44.822Z,13.60
2022-07-25T01:48:44.857Z,13.80
2022-07-25T01:49:44.805Z,13.10
2022-07-25T01:50:44.816Z,13.20
2022-07-25T01:51:44.772Z,13.40
2022-07-25T01:52:44.755Z,13.90
2022-07-25T01:53:44.778Z,13.20
2022-07-25T01:54:44.736Z,13.30
2022-07-25T01:55:44.722Z,13.20
2022-07-25T01:56:44.721Z,12.60
2022-07-25T01:57:49.740Z,13.10
2022-07-25T01:58:44.688Z,13.20
2022-07-25T01:59:44.657Z,12.60
2022-07-25T02:00:44.669Z,13.50
2022-07-25T02:01:44.731Z,13.40
2022-07-25T02:02:44.618Z,13.00
2022-07-25T02:03:44.619Z,13.40
2022-07-25T02:04:44.674Z,13.50
2022-07-25T02:05:44.597Z,13.90
2022-07-25T02:06:44.588Z,13.50
2022-07-25T02:07:44.554Z,13.20
2022-07-25T02:08:44.560Z,13.00
2022-07-25T02:09:44.540Z,13.50
2022-07-25T02:10:44.546Z,14.00
2022-07-25T02:11:44.509Z,13.00
2022-07-25T02:12:44.485Z,13.30
2022-07-25T02:13:44.468Z,12.80
2022-07-25T02:14:44.589Z,12.90
2022-07-25T02:15:44.468Z,12.90
2022-07-25T02:16:44.523Z,13.00
2022-07-25T02:17:44.411Z,13.70
2022-07-25T02:18:44.402Z,13.10
2022-07-25T02:19:44.410Z,13.60
2022-07-25T02:20:44.398Z,13.80
2022-07-25T02:21:44.377Z,13.30
2022-07-25T02:22:44.380Z,12.90
2022-07-25T02:23:44.366Z,14.10
2022-07-25T02:24:44.350Z,13.40
2022-07-25T02:25:44.313Z,13.30
2022-07-25T02:26:44.378Z,14.00
2022-07-25T02:27:44.307Z,13.50
2022-07-25T02:28:44.298Z,13.40
2022-07-25T02:29:44.274Z,13.60
2022-07-25T02:30:44.316Z,13.40
2022-07-25T02:31:44.328Z,13.80
2022-07-25T02:32:44.214Z,14.20
2022-07-25T02:33:44.211Z,14.00
2022-07-25T02:34:44.234Z,14.40
2022-07-25T02:35:44.212Z,13.70
2022-07-25T02:36:44.205Z,13.80
2022-07-25T02:37:44.193Z,13.90
2022-07-25T02:38:44.133Z,13.40
2022-07-25T02:39:44.137Z,13.50
2022-07-25T02:40:44.111Z,13.70
2022-07-25T02:41:44.104Z,13.50
2022-07-25T02:42:44.104Z,13.70
2022-07-25T02:43:44.106Z,13.70
2022-07-25T02:44:44.057Z,13.90
2022-07-25T02:45:44.094Z,14.30
2022-07-25T02:46:44.061Z,13.50
2022-07-25T02:47:44.020Z,13.80
2022-07-25T02:48:44.079Z,13.30
2022-07-25T02:49:43.998Z,13.70
2022-07-25T02:50:43.972Z,13.80
2022-07-25T02:51:43.971Z,13.70
2022-07-25T02:52:44.000Z,13.80
2022-07-25T02:53:59.423Z,13.60
2022-07-25T02:54:43.935Z,13.90
2022-07-25T02:55:43.903Z,13.40
2022-07-25T02:56:43.898Z,13.70
2022-07-25T02:57:43.929Z,13.20
2022-07-25T02:58:43.883Z,13.90
2022-07-25T02:59:43.871Z,14.10
2022-07-25T03:00:44.307Z,13.40
2022-07-25T03:01:43.899Z,13.80
2022-07-25T03:02:43.809Z,13.90
2022-07-25T03:03:43.919Z,13.00
2022-07-25T03:04:43.813Z,13.60
2022-07-25T03:05:43.777Z,13.80
2022-07-25T03:06:43.771Z,13.80
2022-07-25T03:07:43.780Z,13.60
2022-07-25T03:08:43.733Z,14.10
2022-07-25T03:09:43.748Z,13.50
2022-07-25T03:10:43.710Z,13.70
2022-07-25T03:11:43.702Z,13.00
2022-07-25T03:12:43.689Z,14.10
2022-07-25T03:13:43.756Z,13.50
2022-07-25T03:14:43.708Z,13.70
2022-07-25T03:15:43.693Z,14.20
2022-07-25T03:16:43.684Z,13.90
2022-07-25T03:17:43.613Z,14.20
2022-07-25T03:18:43.599Z,13.80
2022-07-25T03:19:43.617Z,13.20
2022-07-25T03:20:43.573Z,13.40
2022-07-25T03:21:43.616Z,14.50
2022-07-25T03:22:43.571Z,14.20
2022-07-25T03:23:43.582Z,13.80
2022-07-25T03:24:43.518Z,14.30
2022-07-25T03:25:43.525Z,13.70
2022-07-25T03:26:43.509Z,13.50
2022-07-25T03:27:43.508Z,13.30
2022-07-25T03:28:43.462Z,13.80
2022-07-25T03:29:43.453Z,14.40
2022-07-25T03:30:43.437Z,14.50
2022-07-25T03:31:43.525Z,13.60
2022-07-25T03:32:43.430Z,14.40
2022-07-25T03:33:43.405Z,14.30
2022-07-25T03:34:43.382Z,14.20
2022-07-25T03:35:43.394Z,15.10
2022-07-25T03:36:43.355Z,14.60
2022-07-25T03:37:43.340Z,15.00
2022-07-25T03:38:43.349Z,13.90
2022-07-25T03:39:43.318Z,14.50
2022-07-25T03:40:43.326Z,14.90
2022-07-25T03:41:43.310Z,14.50
2022-07-25T03:42:43.304Z,13.80
2022-07-25T03:43:43.265Z,14.10
2022-07-25T03:44:43.251Z,14.10
2022-07-25T03:45:43.288Z,14.60
2022-07-25T03:46:43.259Z,14.20
2022-07-25T03:47:43.209Z,14.20
2022-07-25T03:48:43.248Z,14.40
2022-07-25T03:49:43.233Z,15.00
2022-07-25T03:50:43.170Z,15.30
2022-07-25T03:51:43.187Z,15.80
2022-07-25T03:52:43.137Z,13.80
2022-07-25T03:53:43.134Z,14.30
2022-07-25T03:54:43.115Z,14.30
2022-07-25T03:55:43.098Z,16.60
2022-07-25T03:56:43.932Z,15.00
2022-07-25T03:57:43.093Z,15.90
2022-07-25T03:58:43.057Z,15.80
2022-07-25T03:59:43.040Z,15.80
2022-07-25T04:00:43.086Z,15.10
2022-07-25T04:01:43.024Z,15.30
2022-07-25T04:02:43.080Z,14.60
2022-07-25T04:03:42.998Z,14.70
2022-07-25T04:04:43.005Z,14.80
2022-07-25T04:05:47.123Z,14.80
2022-07-25T04:06:42.954Z,14.50
2022-07-25T04:07:42.949Z,15.00
2022-07-25T04:08:42.948Z,14.50
2022-07-25T04:09:42.937Z,14.60
2022-07-25T04:10:42.905Z,14.20
2022-07-25T04:11:42.907Z,14.20
2022-07-25T04:12:42.890Z,15.00
2022-07-25T04:13:42.897Z,14.50
2022-07-25T04:14:42.902Z,14.20
2022-07-25T04:15:42.840Z,14.70
2022-07-25T04:16:42.869Z,14.10
2022-07-25T04:17:42.849Z,14.40
2022-07-25T04:18:42.820Z,13.80
2022-07-25T04:19:42.804Z,14.40
2022-07-25T04:20:42.769Z,14.40
2022-07-25T04:21:42.784Z,14.60
2022-07-25T04:22:46.781Z,14.10
2022-07-25T04:23:42.741Z,14.10
2022-07-25T04:24:42.733Z,13.90
2022-07-25T04:25:42.744Z,14.30
2022-07-25T04:26:42.698Z,14.30
2022-07-25T04:27:42.677Z,14.50
2022-07-25T04:28:42.652Z,14.30
2022-07-25T04:29:42.658Z,14.40
2022-07-25T04:30:42.638Z,14.40
2022-07-25T04:31:42.665Z,15.00
2022-07-25T04:32:42.609Z,14.10
2022-07-25T04:33:42.621Z,13.70
2022-07-25T04:34:42.571Z,14.30
2022-07-25T04:35:42.559Z,14.20
2022-07-25T04:36:42.584Z,13.70
2022-07-25T04:37:42.580Z,14.30
2022-07-25T04:38:42.540Z,13.70
2022-07-25T04:39:42.529Z,13.80
2022-07-25T04:40:42.503Z,13.70
2022-07-25T04:41:42.544Z,13.70
2022-07-25T04:42:42.486Z,13.10
2022-07-25T04:43:47.964Z,13.30
2022-07-25T04:44:42.477Z,13.10
2022-07-25T04:45:42.533Z,13.60
2022-07-25T04:46:42.415Z,13.40
2022-07-25T04:47:42.407Z,14.10
2022-07-25T04:48:42.478Z,13.50
2022-07-25T04:49:42.415Z,13.30
2022-07-25T04:50:42.364Z,13.60
2022-07-25T04:51:42.342Z,12.80
2022-07-25T04:52:42.337Z,13.90
2022-07-25T04:53:42.348Z,16.40
2022-07-25T04:54:42.314Z,15.30
2022-07-25T04:55:42.322Z,14.20
2022-07-25T04:56:42.269Z,32.70
2022-07-25T04:57:42.294Z,19.50
2022-07-25T04:58:42.246Z,15.70
2022-07-25T04:59:42.240Z,13.40
2022-07-25T05:00:42.410Z,20.80
2022-07-25T05:01:42.233Z,16.20
2022-07-25T05:02:42.304Z,13.80
2022-07-25T05:03:50.188Z,14.00
2022-07-25T05:04:45.447Z,13.00
2022-07-25T05:05:42.190Z,13.30
2022-07-25T05:06:42.220Z,13.30
2022-07-25T05:07:42.133Z,13.10
2022-07-25T05:08:42.122Z,13.60
2022-07-25T05:09:42.129Z,13.40
2022-07-25T05:10:42.142Z,13.00
2022-07-25T05:11:46.851Z,12.40
2022-07-25T05:12:42.089Z,12.60
2022-07-25T05:13:42.063Z,34.60
2022-07-25T05:14:42.064Z,19.40
2022-07-25T05:15:42.018Z,13.00
2022-07-25T05:16:42.152Z,15.30
2022-07-25T05:17:41.994Z,12.20
2022-07-25T05:18:42.008Z,12.20
2022-07-25T05:19:41.968Z,12.40
2022-07-25T05:20:41.981Z,12.20
2022-07-25T05:21:42.005Z,12.60
2022-07-25T05:22:41.947Z,12.20
2022-07-25T05:23:41.922Z,11.60
2022-07-25T05:24:41.907Z,11.90
2022-07-25T05:25:41.884Z,11.80
2022-07-25T05:26:41.952Z,11.80
2022-07-25T05:27:41.873Z,11.00
2022-07-25T05:28:41.859Z,11.60
2022-07-25T05:29:41.835Z,11.10
2022-07-25T05:30:41.826Z,11.30
2022-07-25T05:31:41.862Z,11.60
2022-07-25T05:32:41.791Z,11.00
2022-07-25T05:33:41.795Z,11.00
2022-07-25T05:34:41.791Z,11.30
2022-07-25T05:35:41.752Z,10.90
2022-07-25T05:36:46.859Z,10.80
2022-07-25T05:37:41.736Z,11.20
2022-07-25T05:38:41.761Z,11.40
2022-07-25T05:39:41.700Z,11.80
2022-07-25T05:40:41.691Z,12.30
2022-07-25T05:41:41.709Z,11.70
2022-07-25T05:42:41.660Z,11.30
2022-07-25T05:43:41.667Z,12.40
2022-07-25T05:44:41.639Z,11.60
2022-07-25T05:45:41.674Z,11.60
2022-07-25T05:46:41.699Z,11.90
2022-07-25T05:47:41.600Z,11.10
2022-07-25T05:48:41.720Z,10.60
2022-07-25T05:49:41.574Z,11.40
2022-07-25T05:50:41.580Z,10.90
2022-07-25T05:51:41.542Z,11.30
2022-07-25T05:52:41.532Z,12.00
2022-07-25T05:53:41.507Z,11.80
2022-07-25T05:54:41.502Z,11.10
2022-07-25T05:55:41.531Z,11.00
2022-07-25T05:56:41.502Z,10.20
2022-07-25T05:57:41.461Z,10.10
2022-07-25T05:58:41.496Z,10.50
2022-07-25T05:59:41.477Z,10.20
2022-07-25T06:00:41.413Z,10.50
2022-07-25T06:01:41.499Z,10.40
2022-07-25T06:02:41.834Z,10.90
2022-07-25T06:03:41.416Z,10.70
2022-07-25T06:04:41.392Z,9.90
2022-07-25T06:05:41.417Z,11.00
2022-07-25T06:06:41.337Z,10.40
2022-07-25T06:07:41.353Z,9.80
2022-07-25T06:08:41.330Z,10.10
2022-07-25T06:09:41.306Z,10.40
2022-07-25T06:10:41.298Z,10.60
2022-07-25T06:11:51.005Z,10.60
2022-07-25T06:12:41.288Z,9.90
2022-07-25T06:13:41.249Z,9.60
2022-07-25T06:14:41.287Z,10.30
2022-07-25T06:15:41.216Z,9.90
2022-07-25T06:16:41.307Z,10.20
2022-07-25T06:17:41.191Z,10.30
2022-07-25T06:18:41.175Z,10.00
2022-07-25T06:19:41.192Z,10.10
2022-07-25T06:20:41.153Z,9.60
2022-07-25T06:21:41.165Z,10.00
2022-07-25T06:22:41.123Z,9.60
2022-07-25T06:23:41.107Z,10.00
2022-07-25T06:24:41.096Z,9.70
2022-07-25T06:25:41.082Z,9.90
2022-07-25T06:26:41.141Z,10.20
2022-07-25T06:27:41.055Z,9.80
2022-07-25T06:28:41.069Z,9.70
2022-07-25T06:29:41.057Z,9.20
2022-07-25T06:30:41.032Z,10.00
2022-07-25T06:31:41.066Z,9.80
2022-07-25T06:32:40.986Z,10.40
2022-07-25T06:33:40.979Z,9.50
2022-07-25T06:34:40.961Z,10.10
2022-07-25T06:35:41.024Z,9.80
2022-07-25T06:36:40.940Z,9.80
2022-07-25T06:37:40.942Z,9.60
2022-07-25T06:38:40.913Z,10.00
2022-07-25T06:39:45.457Z,9.60
2022-07-25T06:40:40.895Z,9.40
2022-07-25T06:41:40.891Z,9.50
2022-07-25T06:42:40.862Z,10.10
2022-07-25T06:43:40.865Z,9.60
2022-07-25T06:44:40.849Z,9.80
2022-07-25T06:45:40.848Z,9.80
2022-07-25T06:46:40.885Z,10.00
2022-07-25T06:47:40.798Z,9.80
2022-07-25T06:48:40.877Z,9.50
2022-07-25T06:49:40.767Z,9.10
2022-07-25T06:50:40.761Z,9.70
2022-07-25T06:51:40.764Z,9.10
2022-07-25T06:52:40.756Z,9.40
2022-07-25T06:53:40.711Z,10.00
2022-07-25T06:54:40.711Z,12.50
2022-07-25T06:55:40.695Z,11.80
2022-07-25T06:56:40.684Z,9.50
2022-07-25T06:57:40.695Z,9.20
2022-07-25T06:58:40.672Z,9.60
2022-07-25T06:59:40.642Z,9.70
2022-07-25T07:00:40.735Z,9.50
2022-07-25T07:01:40.628Z,9.40
2022-07-25T07:02:40.631Z,9.30
2022-07-25T07:03:40.752Z,10.70
2022-07-25T07:04:40.575Z,9.80
2022-07-25T07:05:40.650Z,12.80
2022-07-25T07:06:40.565Z,9.90
2022-07-25T07:07:44.430Z,9.90
2022-07-25T07:08:40.568Z,10.20
2022-07-25T07:09:40.497Z,9.60
2022-07-25T07:10:40.500Z,10.20
2022-07-25T07:11:40.488Z,10.60
2022-07-25T07:12:40.488Z,10.50
2022-07-25T07:13:40.493Z,10.00
2022-07-25T07:14:40.470Z,10.60
2022-07-25T07:15:40.625Z,10.30
2022-07-25T07:16:40.476Z,10.00
2022-07-25T07:17:40.417Z,9.50
2022-07-25T07:18:40.432Z,9.30
2022-07-25T07:19:40.414Z,9.40
2022-07-25T07:20:40.373Z,10.10
2022-07-25T07:21:40.350Z,9.60
2022-07-25T07:22:40.362Z,10.60
2022-07-25T07:23:40.366Z,9.50
2022-07-25T07:24:44.063Z,10.50
2022-07-25T07:25:40.309Z,10.50
2022-07-25T07:26:40.290Z,10.20
2022-07-25T07:27:40.262Z,10.30
2022-07-25T07:28:40.296Z,10.40
2022-07-25T07:29:40.238Z,9.60
2022-07-25T07:31:13.558Z,10.40
2022-07-25T07:31:40.282Z,10.40
2022-07-25T07:32:40.228Z,9.50
2022-07-25T07:33:40.203Z,9.40
2022-07-25T07:34:40.207Z,8.90
2022-07-25T07:35:40.173Z,9.70
2022-07-25T07:36:40.148Z,9.30
2022-07-25T07:37:43.508Z,9.30
2022-07-25T07:38:40.181Z,9.20
2022-07-25T07:39:40.133Z,9.10
2022-07-25T07:40:40.129Z,9.10
2022-07-25T07:41:40.072Z,9.00
2022-07-25T07:42:40.080Z,9.30
2022-07-25T07:43:40.093Z,9.40
2022-07-25T07:44:40.071Z,9.00
2022-07-25T07:45:40.028Z,9.20
2022-07-25T07:46:40.029Z,9.10
2022-07-25T07:47:40.016Z,9.50
2022-07-25T07:48:40.229Z,9.60
2022-07-25T07:49:39.996Z,8.70
2022-07-25T07:50:39.963Z,9.60
2022-07-25T07:51:39.993Z,9.60
2022-07-25T07:52:39.933Z,9.40
2022-07-25T07:53:39.941Z,9.40
2022-07-25T07:54:39.925Z,9.80
2022-07-25T07:55:39.891Z,9.20
2022-07-25T07:56:39.872Z,9.30
2022-07-25T07:57:39.931Z,9.10
2022-07-25T07:58:39.845Z,9.00
2022-07-25T07:59:39.885Z,9.70
2022-07-25T08:00:39.822Z,9.20
2022-07-25T08:01:39.836Z,9.50
2022-07-25T08:02:39.930Z,9.20
2022-07-25T08:03:39.788Z,9.60
2022-07-25T08:04:39.797Z,10.00
2022-07-25T08:05:39.768Z,9.60
2022-07-25T08:06:39.743Z,9.60
2022-07-25T08:07:39.746Z,9.60
2022-07-25T08:08:39.726Z,10.10
2022-07-25T08:09:39.728Z,9.90
2022-07-25T08:10:39.710Z,9.80
2022-07-25T08:11:39.732Z,9.50
2022-07-25T08:12:39.718Z,9.80
2022-07-25T08:13:39.666Z,9.50
2022-07-25T08:14:39.667Z,10.00
2022-07-25T08:15:39.672Z,9.90
2022-07-25T08:16:39.648Z,9.90
2022-07-25T08:17:39.602Z,9.00
2022-07-25T08:18:39.731Z,9.30
2022-07-25T08:19:39.573Z,8.70
2022-07-25T08:20:39.661Z,9.30
2022-07-25T08:21:39.541Z,9.10
2022-07-25T08:22:39.542Z,9.50
2022-07-25T08:23:39.539Z,9.90
2022-07-25T08:24:39.520Z,9.90
2022-07-25T08:25:39.490Z,9.40
2022-07-25T08:26:39.478Z,9.90
2022-07-25T08:27:39.497Z,9.40
2022-07-25T08:28:39.464Z,9.70
2022-07-25T08:29:39.941Z,9.60
2022-07-25T08:30:39.440Z,10.10
2022-07-25T08:31:39.525Z,10.10
2022-07-25T08:32:39.408Z,10.10
2022-07-25T08:33:39.395Z,10.10
2022-07-25T08:34:39.375Z,9.20
2022-07-25T08:35:39.390Z,9.80
2022-07-25T08:36:39.377Z,9.40
2022-07-25T08:37:39.368Z,9.50
2022-07-25T08:38:39.338Z,10.10
2022-07-25T08:39:39.336Z,9.80
2022-07-25T08:40:39.319Z,9.10
2022-07-25T08:41:39.296Z,8.80
2022-07-25T08:42:39.309Z,8.80
2022-07-25T08:43:39.262Z,8.90
2022-07-25T08:44:39.245Z,8.70
2022-07-25T08:45:39.235Z,9.00
2022-07-25T08:46:39.311Z,8.90
2022-07-25T08:47:39.218Z,8.60
2022-07-25T08:48:39.348Z,8.50
2022-07-25T08:49:39.176Z,9.30
2022-07-25T08:50:39.216Z,8.90
2022-07-25T08:51:39.152Z,8.50
2022-07-25T08:52:39.141Z,8.90
2022-07-25T08:53:39.180Z,8.90
2022-07-25T08:54:39.191Z,9.30
2022-07-25T08:55:39.129Z,8.90
2022-07-25T08:56:39.192Z,9.10
2022-07-25T08:57:39.083Z,8.80
2022-07-25T08:58:39.101Z,8.70
2022-07-25T08:59:39.062Z,9.00
2022-07-25T09:00:39.074Z,9.70
2022-07-25T09:01:39.051Z,9.80
2022-07-25T09:02:39.094Z,9.80
2022-07-25T09:03:39.007Z,9.80
2022-07-25T09:04:39.039Z,9.90
2022-07-25T09:05:39.023Z,9.60
2022-07-25T09:06:38.963Z,9.70
2022-07-25T09:07:38.945Z,9.00
2022-07-25T09:08:38.948Z,8.50
2022-07-25T09:09:38.954Z,8.70
2022-07-25T09:10:38.944Z,9.10
2022-07-25T09:11:38.933Z,8.40
2022-07-25T09:12:39.601Z,8.30
2022-07-25T09:13:38.945Z,8.80
2022-07-25T09:14:38.857Z,8.70
2022-07-25T09:15:38.930Z,9.40
2022-07-25T09:16:40.213Z,9.60
2022-07-25T09:17:38.838Z,9.40
2022-07-25T09:18:38.801Z,9.70
2022-07-25T09:19:38.824Z,9.50
2022-07-25T09:20:38.786Z,9.40
2022-07-25T09:21:38.924Z,8.90
2022-07-25T09:22:38.802Z,9.50
2022-07-25T09:23:38.813Z,9.00
2022-07-25T09:24:38.746Z,9.10
2022-07-25T09:25:38.724Z,9.00
2022-07-25T09:26:38.710Z,9.10
2022-07-25T09:27:38.702Z,9.30
2022-07-25T09:28:38.702Z,9.10
2022-07-25T09:29:38.654Z,8.80
2022-07-25T09:30:38.656Z,8.60
2022-07-25T09:31:38.767Z,8.50
2022-07-25T09:32:38.644Z,8.30
2022-07-25T09:33:38.610Z,8.30
2022-07-25T09:34:38.597Z,8.20
2022-07-25T09:35:38.587Z,8.40
2022-07-25T09:36:38.572Z,8.60
2022-07-25T09:37:38.596Z,8.80
2022-07-25T09:38:38.542Z,8.70
2022-07-25T09:39:43.450Z,8.80
2022-07-25T09:40:38.624Z,8.50
2022-07-25T09:41:38.527Z,8.40
2022-07-25T09:42:38.628Z,8.30
2022-07-25T09:43:38.505Z,8.60
2022-07-25T09:44:38.513Z,8.80
2022-07-25T09:45:38.454Z,8.10
2022-07-25T09:46:38.522Z,7.50
2022-07-25T09:47:38.455Z,7.80
2022-07-25T09:48:38.435Z,6.80
2022-07-25T09:49:38.494Z,7.20
2022-07-25T09:50:38.419Z,7.30
2022-07-25T09:51:38.375Z,7.30
2022-07-25T09:52:38.399Z,7.70
2022-07-25T09:53:38.399Z,10.40
2022-07-25T09:54:38.336Z,8.70
2022-07-25T09:55:38.322Z,7.20
2022-07-25T09:56:38.340Z,7.00
2022-07-25T09:57:38.329Z,7.00
2022-07-25T09:58:38.293Z,6.90
2022-07-25T09:59:38.263Z,6.90
2022-07-25T10:00:38.267Z,7.00
2022-07-25T10:01:38.273Z,6.80
2022-07-25T10:02:38.324Z,6.40
2022-07-25T10:03:38.237Z,6.70
2022-07-25T10:04:38.219Z,6.70
2022-07-25T10:05:38.238Z,6.70
2022-07-25T10:06:38.202Z,7.20
2022-07-25T10:07:38.175Z,6.60
2022-07-25T10:08:38.231Z,6.60
2022-07-25T10:09:38.167Z,6.60
2022-07-25T10:10:38.132Z,6.90
2022-07-25T10:11:38.121Z,6.60
2022-07-25T10:12:38.103Z,6.90
2022-07-25T10:13:38.166Z,7.00
2022-07-25T10:14:38.090Z,6.80
2022-07-25T10:15:38.071Z,6.80
2022-07-25T10:16:38.154Z,7.40
2022-07-25T10:17:38.035Z,7.70
2022-07-25T10:18:38.020Z,7.30
2022-07-25T10:19:38.013Z,7.70
2022-07-25T10:20:38.005Z,7.40
2022-07-25T10:21:38.006Z,7.10
2022-07-25T10:22:55.143Z,7.30
2022-07-25T10:23:37.967Z,6.80
2022-07-25T10:24:37.954Z,6.70
2022-07-25T10:25:37.935Z,6.80
2022-07-25T10:26:37.965Z,7.10
2022-07-25T10:27:37.919Z,6.70
2022-07-25T10:28:37.902Z,7.30
2022-07-25T10:29:37.899Z,7.10
2022-07-25T10:30:37.965Z,7.00
2022-07-25T10:31:37.886Z,6.80
2022-07-25T10:32:37.854Z,7.00
2022-07-25T10:33:37.868Z,7.10
2022-07-25T10:34:37.840Z,6.90
2022-07-25T10:35:37.809Z,7.20
2022-07-25T10:36:37.795Z,6.90
2022-07-25T10:37:37.822Z,6.90
2022-07-25T10:38:37.768Z,7.20
2022-07-25T10:39:37.769Z,6.70
2022-07-25T10:40:37.801Z,7.30
2022-07-25T10:41:37.730Z,7.40
2022-07-25T10:42:37.772Z,7.00
2022-07-25T10:43:37.708Z,6.70
2022-07-25T10:44:37.705Z,7.20
2022-07-25T10:45:38.557Z,7.10
2022-07-25T10:46:37.757Z,6.90
2022-07-25T10:47:37.693Z,7.10
2022-07-25T10:48:37.711Z,7.10
2022-07-25T10:49:38.845Z,7.10
2022-07-25T10:50:55.010Z,7.20
2022-07-25T10:51:41.655Z,7.10
2022-07-25T10:52:37.617Z,7.40
2022-07-25T10:53:37.597Z,6.70
2022-07-25T10:54:37.618Z,6.90
2022-07-25T10:55:37.572Z,7.30
2022-07-25T10:56:37.553Z,7.00
2022-07-25T10:57:49.668Z,6.90
2022-07-25T10:58:37.532Z,7.20
2022-07-25T10:59:37.540Z,6.80
2022-07-25T11:00:37.521Z,6.90
2022-07-25T11:01:37.542Z,6.60
2022-07-25T11:02:37.578Z,6.80
2022-07-25T11:03:37.461Z,6.80
2022-07-25T11:04:37.466Z,6.50
2022-07-25T11:05:37.436Z,7.00
2022-07-25T11:06:37.414Z,6.80
2022-07-25T11:07:37.413Z,6.90
2022-07-25T11:08:37.397Z,7.00
2022-07-25T11:09:37.420Z,6.80
2022-07-25T11:10:37.377Z,6.40
2022-07-25T11:11:37.374Z,6.80
2022-07-25T11:12:37.342Z,6.90
2022-07-25T11:13:37.334Z,6.30
2022-07-25T11:14:37.336Z,6.40
2022-07-25T11:15:37.315Z,6.50
2022-07-25T11:16:37.350Z,6.20
2022-07-25T11:17:37.292Z,6.00
2022-07-25T11:18:37.268Z,6.30
2022-07-25T11:19:37.297Z,6.20
2022-07-25T11:20:37.243Z,6.50
2022-07-25T11:21:37.232Z,6.80
2022-07-25T11:22:37.218Z,6.40
2022-07-25T11:23:37.214Z,6.50
2022-07-25T11:24:37.244Z,6.40
2022-07-25T11:25:37.191Z,6.20
2022-07-25T11:26:37.177Z,6.40
2022-07-25T11:27:37.155Z,6.40
2022-07-25T11:28:37.182Z,6.40
2022-07-25T11:29:37.133Z,6.10
2022-07-25T11:30:37.115Z,6.20
2022-07-25T11:31:37.220Z,6.20
2022-07-25T11:32:37.098Z,6.10
2022-07-25T11:33:38.819Z,6.20
2022-07-25T11:34:37.072Z,5.90
2022-07-25T11:35:37.096Z,5.90
2022-07-25T11:36:37.065Z,6.20
2022-07-25T11:37:37.080Z,6.40
2022-07-25T11:38:37.036Z,6.00
2022-07-25T11:39:37.045Z,5.90
2022-07-25T11:40:37.045Z,6.00
2022-07-25T11:41:36.993Z,6.20
2022-07-25T11:42:36.977Z,5.80
2022-07-25T11:43:36.972Z,6.00
2022-07-25T11:44:36.978Z,6.10
2022-07-25T11:45:37.033Z,6.10
2022-07-25T11:46:36.933Z,6.10
2022-07-25T11:47:36.915Z,6.20
2022-07-25T11:48:36.985Z,6.30
2022-07-25T11:49:36.928Z,10.20
2022-07-25T11:50:36.881Z,6.80
2022-07-25T11:51:36.871Z,7.10
2022-07-25T11:52:36.861Z,7.30
2022-07-25T11:53:36.852Z,6.50
2022-07-25T11:54:36.857Z,6.30
2022-07-25T11:55:36.830Z,5.40
2022-07-25T11:56:44.177Z,6.10
2022-07-25T11:57:36.802Z,6.20
2022-07-25T11:58:36.814Z,5.80
2022-07-25T11:59:36.779Z,5.80
2022-07-25T12:00:36.798Z,5.80
2022-07-25T12:01:36.899Z,5.90
2022-07-25T12:02:36.987Z,5.50
2022-07-25T12:03:36.885Z,6.00
2022-07-25T12:04:36.722Z,5.40
2022-07-25T12:05:36.754Z,5.60
2022-07-25T12:06:36.699Z,5.60
2022-07-25T12:07:36.682Z,5.90
2022-07-25T12:08:36.678Z,5.50
2022-07-25T12:09:36.650Z,5.60
2022-07-25T12:10:36.635Z,5.40
2022-07-25T12:11:36.623Z,5.50
2022-07-25T12:12:36.619Z,5.80
2022-07-25T12:13:36.635Z,5.20
2022-07-25T12:14:36.584Z,5.30
2022-07-25T12:15:36.577Z,5.40
2022-07-25T12:16:36.647Z,5.30
2022-07-25T12:17:36.543Z,5.50
2022-07-25T12:18:36.536Z,5.50
2022-07-25T12:19:36.519Z,5.40
2022-07-25T12:20:36.508Z,5.60
2022-07-25T12:21:36.517Z,5.50
2022-07-25T12:22:36.492Z,5.30
2022-07-25T12:23:36.473Z,5.00
2022-07-25T12:24:36.454Z,5.60
2022-07-25T12:25:36.474Z,5.50
2022-07-25T12:26:36.442Z,5.70
2022-07-25T12:27:36.426Z,5.50
2022-07-25T12:28:36.406Z,5.60
2022-07-25T12:29:36.399Z,5.40
2022-07-25T12:30:36.454Z,5.40
2022-07-25T12:31:36.493Z,5.80
2022-07-25T12:32:36.359Z,5.90
2022-07-25T12:33:36.351Z,6.00
2022-07-25T12:34:36.335Z,5.40
2022-07-25T12:35:36.352Z,5.60
2022-07-25T12:36:36.320Z,5.50
2022-07-25T12:37:36.305Z,5.70
2022-07-25T12:38:36.292Z,5.70
2022-07-25T12:39:36.280Z,5.60
2022-07-25T12:40:36.264Z,5.90
2022-07-25T12:41:36.285Z,5.90
2022-07-25T12:42:36.240Z,5.70
2022-07-25T12:43:36.226Z,5.80
2022-07-25T12:44:36.212Z,5.60
2022-07-25T12:45:36.227Z,5.40
2022-07-25T12:46:36.214Z,5.50
2022-07-25T12:47:36.184Z,6.00
2022-07-25T12:48:36.218Z,5.90
2022-07-25T12:49:36.168Z,5.50
2022-07-25T12:50:36.152Z,5.80
2022-07-25T12:51:36.139Z,5.50
2022-07-25T12:52:36.131Z,5.60
2022-07-25T12:53:41.731Z,5.50
2022-07-25T12:54:36.112Z,5.70
2022-07-25T12:55:36.143Z,6.20
2022-07-25T12:56:36.083Z,5.50
2022-07-25T12:57:36.066Z,5.50
2022-07-25T12:58:36.088Z,5.70
2022-07-25T12:59:36.039Z,5.40
2022-07-25T13:00:36.018Z,5.60
2022-07-25T13:01:36.084Z,5.70
2022-07-25T13:02:36.080Z,5.40
2022-07-25T13:03:35.996Z,5.60
2022-07-25T13:04:36.008Z,5.70